Uzhhorod, Ukraine
Current Conditions -  °F | °C
As of 8:30 AM on Thursday 23 Oct 2014 (Local Time) from UKLU Reporting Station
Light Rain Light Rain  
Wind Chill: 44°   Ceiling: 700
Heat Index: 46°   Visibility: 4mi
Dew Point: 45°   Wind: 4mph
Humidity: 93%   Direction: 290°WNW
Pressure: 29.68"   Gusts: NA
Location:  48.62°N, 22.3°E
Report Text: UKLU 230530Z 29002MPS 7000 -RA OVC007 08/07 Q1005 10290060 NOSIG
Loading
Personal Weather Stations






























Interactive Weather Map
Tropical Storm Tracking
New forecast layout! Learn more

10-Day Weather Forecast

Advertisements
Track Severe Weather on mobile